createdAt,value
2023-05-03T00:00:28.525Z,669.10
2023-05-03T00:01:28.488Z,668.90
2023-05-03T00:02:28.565Z,682.30
2023-05-03T00:03:28.465Z,702.30
2023-05-03T00:04:28.429Z,716.90
2023-05-03T00:05:28.498Z,715.00
2023-05-03T00:06:28.488Z,697.20
2023-05-03T00:07:28.405Z,674.00
2023-05-03T00:08:28.384Z,684.60
2023-05-03T00:09:28.387Z,674.10
2023-05-03T00:10:28.422Z,637.20
2023-05-03T00:11:28.378Z,679.50
2023-05-03T00:12:28.372Z,618.50
2023-05-03T00:13:28.333Z,651.90
2023-05-03T00:14:28.332Z,656.80
2023-05-03T00:15:28.375Z,617.00
2023-05-03T00:16:28.350Z,658.20
2023-05-03T00:17:28.319Z,636.90
2023-05-03T00:18:28.311Z,656.40
2023-05-03T00:19:31.793Z,689.40
2023-05-03T00:20:28.266Z,682.90
2023-05-03T00:21:28.302Z,704.90
2023-05-03T00:22:28.257Z,679.00
2023-05-03T00:23:28.239Z,678.10
2023-05-03T00:24:28.233Z,694.10
2023-05-03T00:25:28.218Z,685.80
2023-05-03T00:26:28.252Z,682.60
2023-05-03T00:27:28.192Z,667.80
2023-05-03T00:28:28.182Z,694.80
2023-05-03T00:29:28.175Z,703.30
2023-05-03T00:30:28.180Z,694.70
2023-05-03T00:31:28.222Z,701.30
2023-05-03T00:32:28.174Z,706.30
2023-05-03T00:33:28.133Z,694.20
2023-05-03T00:34:28.105Z,681.20
2023-05-03T00:35:28.120Z,687.80
2023-05-03T00:36:28.130Z,690.50
2023-05-03T00:37:28.085Z,696.40
2023-05-03T00:38:28.078Z,714.80
2023-05-03T00:39:28.056Z,681.10
2023-05-03T00:40:28.045Z,692.20
2023-05-03T00:41:28.079Z,702.70
2023-05-03T00:42:28.017Z,675.70
2023-05-03T00:43:28.002Z,618.60
2023-05-03T00:44:27.991Z,636.30
2023-05-03T00:45:27.994Z,600.30
2023-05-03T00:46:28.096Z,699.30
2023-05-03T00:47:28.020Z,736.20
2023-05-03T00:48:27.963Z,737.60
2023-05-03T00:49:27.954Z,751.10
2023-05-03T00:50:27.937Z,740.50
2023-05-03T00:51:27.972Z,708.20
2023-05-03T00:52:27.918Z,659.70
2023-05-03T00:53:27.893Z,661.00
2023-05-03T00:54:27.875Z,653.00
2023-05-03T00:55:27.893Z,691.30
2023-05-03T00:56:29.495Z,737.80
2023-05-03T00:57:27.858Z,784.50
2023-05-03T00:58:27.841Z,790.90
2023-05-03T00:59:27.842Z,795.80
2023-05-03T01:00:27.827Z,772.60
2023-05-03T01:01:27.863Z,798.40
2023-05-03T01:02:27.815Z,793.60
2023-05-03T01:03:27.863Z,788.30
2023-05-03T01:04:27.801Z,812.40
2023-05-03T01:05:27.772Z,813.90
2023-05-03T01:06:27.934Z,801.90
2023-05-03T01:07:27.747Z,814.50
2023-05-03T01:08:27.735Z,815.90
2023-05-03T01:09:27.718Z,801.30
2023-05-03T01:10:27.710Z,812.90
2023-05-03T01:11:27.736Z,806.70
2023-05-03T01:12:27.686Z,820.10
2023-05-03T01:13:27.665Z,821.90
2023-05-03T01:14:27.659Z,809.40
2023-05-03T01:15:27.683Z,809.40
2023-05-03T01:16:27.698Z,812.70
2023-05-03T01:17:27.697Z,877.90
2023-05-03T01:18:27.613Z,876.00
2023-05-03T01:19:27.616Z,865.90
2023-05-03T01:20:27.586Z,883.30
2023-05-03T01:21:27.641Z,865.90
2023-05-03T01:22:27.568Z,885.50
2023-05-03T01:23:27.571Z,901.60
2023-05-03T01:24:27.555Z,897.00
2023-05-03T01:25:27.568Z,896.30
2023-05-03T01:26:27.651Z,900.20
2023-05-03T01:27:27.538Z,884.00
2023-05-03T01:28:27.504Z,869.00
2023-05-03T01:29:27.503Z,857.20
2023-05-03T01:30:27.490Z,855.10
2023-05-03T01:31:27.586Z,862.70
2023-05-03T01:32:27.471Z,854.70
2023-05-03T01:33:27.442Z,855.90
2023-05-03T01:34:27.420Z,871.70
2023-05-03T01:35:27.425Z,841.60
2023-05-03T01:36:27.464Z,843.50
2023-05-03T01:37:27.394Z,839.10
2023-05-03T01:38:27.391Z,837.80
2023-05-03T01:39:27.416Z,857.30
2023-05-03T01:40:27.375Z,857.00
2023-05-03T01:41:27.394Z,865.10
2023-05-03T01:42:27.374Z,860.40
2023-05-03T01:43:27.372Z,864.70
2023-05-03T01:44:27.329Z,844.00
2023-05-03T01:45:27.310Z,826.80
2023-05-03T01:46:27.406Z,781.40
2023-05-03T01:47:27.337Z,759.90
2023-05-03T01:48:27.288Z,767.70
2023-05-03T01:49:27.261Z,782.90
2023-05-03T01:50:27.273Z,787.90
2023-05-03T01:51:27.280Z,800.10
2023-05-03T01:52:27.241Z,801.50
2023-05-03T01:53:27.219Z,800.50
2023-05-03T01:54:27.202Z,806.20
2023-05-03T01:55:27.212Z,830.80
2023-05-03T01:56:27.228Z,837.70
2023-05-03T01:57:27.202Z,799.00
2023-05-03T01:58:27.169Z,756.80
2023-05-03T01:59:27.163Z,751.30
2023-05-03T02:00:27.139Z,758.80
2023-05-03T02:01:27.205Z,747.60
2023-05-03T02:02:27.136Z,728.70
2023-05-03T02:03:27.100Z,721.50
2023-05-03T02:04:27.137Z,731.20
2023-05-03T02:05:27.105Z,702.40
2023-05-03T02:06:27.150Z,712.80
2023-05-03T02:07:27.078Z,726.40
2023-05-03T02:08:27.051Z,695.00
2023-05-03T02:09:27.040Z,679.70
2023-05-03T02:10:27.019Z,721.90
2023-05-03T02:11:27.071Z,714.30
2023-05-03T02:12:27.036Z,705.20
2023-05-03T02:13:27.016Z,716.50
2023-05-03T02:14:26.989Z,723.90
2023-05-03T02:15:26.972Z,739.90
2023-05-03T02:16:27.014Z,741.30
2023-05-03T02:17:27.018Z,735.40
2023-05-03T02:18:26.954Z,754.30
2023-05-03T02:19:26.938Z,757.40
2023-05-03T02:20:26.925Z,760.50
2023-05-03T02:21:26.907Z,761.50
2023-05-03T02:22:26.943Z,752.30
2023-05-03T02:23:26.907Z,755.00
2023-05-03T02:24:26.880Z,752.60
2023-05-03T02:25:27.682Z,719.70
2023-05-03T02:26:26.916Z,708.00
2023-05-03T02:27:26.845Z,725.30
2023-05-03T02:28:26.865Z,717.90
2023-05-03T02:29:26.834Z,693.90
2023-05-03T02:30:26.838Z,673.30
2023-05-03T02:31:26.912Z,676.40
2023-05-03T02:32:26.816Z,672.50
2023-05-03T02:33:26.772Z,692.70
2023-05-03T02:34:26.759Z,694.70
2023-05-03T02:35:26.753Z,692.90
2023-05-03T02:36:26.781Z,693.70
2023-05-03T02:37:26.745Z,693.60
2023-05-03T02:38:26.724Z,668.10
2023-05-03T02:39:26.721Z,679.80
2023-05-03T02:40:26.683Z,681.10
2023-05-03T02:41:26.730Z,705.20
2023-05-03T02:42:26.695Z,704.90
2023-05-03T02:43:26.676Z,709.40
2023-05-03T02:44:26.676Z,707.40
2023-05-03T02:45:26.650Z,696.10
2023-05-03T02:46:26.715Z,699.20
2023-05-03T02:47:26.678Z,698.90
2023-05-03T02:48:26.621Z,712.20
2023-05-03T02:49:26.615Z,700.90
2023-05-03T02:50:26.594Z,704.80
2023-05-03T02:51:26.629Z,714.70
2023-05-03T02:52:26.555Z,734.50
2023-05-03T02:53:26.559Z,735.00
2023-05-03T02:54:26.566Z,744.20
2023-05-03T02:55:26.563Z,743.40
2023-05-03T02:56:26.562Z,738.70
2023-05-03T02:57:26.508Z,744.70
2023-05-03T02:58:26.514Z,754.10
2023-05-03T02:59:26.481Z,752.40
2023-05-03T03:00:26.486Z,737.70
2023-05-03T03:01:26.541Z,714.10
2023-05-03T03:02:26.602Z,696.30
2023-05-03T03:03:26.516Z,683.50
2023-05-03T03:04:26.439Z,692.70
2023-05-03T03:05:26.416Z,678.50
2023-05-03T03:06:26.505Z,669.00
2023-05-03T03:07:26.418Z,672.50
2023-05-03T03:08:26.390Z,670.80
2023-05-03T03:09:26.390Z,679.20
2023-05-03T03:10:26.368Z,684.00
2023-05-03T03:11:26.383Z,680.60
2023-05-03T03:12:26.352Z,682.10
2023-05-03T03:13:26.328Z,688.60
2023-05-03T03:14:26.343Z,666.10
2023-05-03T03:15:26.313Z,682.10
2023-05-03T03:16:26.417Z,674.80
2023-05-03T03:17:26.318Z,676.50
2023-05-03T03:18:26.293Z,690.40
2023-05-03T03:19:26.266Z,690.00
2023-05-03T03:20:26.266Z,693.50
2023-05-03T03:21:26.301Z,695.20
2023-05-03T03:22:26.255Z,707.20
2023-05-03T03:23:26.230Z,695.80
2023-05-03T03:24:26.216Z,707.70
2023-05-03T03:25:26.233Z,705.50
2023-05-03T03:26:26.254Z,706.70
2023-05-03T03:27:26.190Z,712.00
2023-05-03T03:28:26.176Z,735.60
2023-05-03T03:29:26.168Z,737.40
2023-05-03T03:30:26.145Z,740.50
2023-05-03T03:31:26.230Z,755.40
2023-05-03T03:32:26.113Z,757.00
2023-05-03T03:33:26.233Z,766.70
2023-05-03T03:34:26.093Z,769.80
2023-05-03T03:35:26.090Z,791.90
2023-05-03T03:36:26.111Z,798.70
2023-05-03T03:37:26.076Z,784.50
2023-05-03T03:38:26.064Z,748.80
2023-05-03T03:39:26.053Z,815.50
2023-05-03T03:40:26.040Z,793.90
2023-05-03T03:41:26.063Z,744.90
2023-05-03T03:42:26.016Z,826.90
2023-05-03T03:43:26.022Z,814.50
2023-05-03T03:44:25.990Z,810.50
2023-05-03T03:45:25.979Z,802.30
2023-05-03T03:46:26.081Z,828.90
2023-05-03T03:47:26.076Z,823.70
2023-05-03T03:48:25.943Z,784.10
2023-05-03T03:49:25.960Z,805.80
2023-05-03T03:50:25.925Z,764.50
2023-05-03T03:51:25.968Z,847.70
2023-05-03T03:52:25.907Z,841.40
2023-05-03T03:53:25.876Z,830.30
2023-05-03T03:54:25.877Z,837.50
2023-05-03T03:55:25.890Z,828.40
2023-05-03T03:56:25.902Z,822.50
2023-05-03T03:57:25.840Z,812.00
2023-05-03T03:58:25.839Z,817.80
2023-05-03T03:59:25.834Z,814.50
2023-05-03T04:00:25.843Z,812.70
2023-05-03T04:01:25.834Z,812.50
2023-05-03T04:02:25.831Z,799.00
2023-05-03T04:03:25.881Z,785.00
2023-05-03T04:04:25.836Z,779.80
2023-05-03T04:05:25.752Z,757.00
2023-05-03T04:06:25.886Z,751.20
2023-05-03T04:07:25.726Z,731.50
2023-05-03T04:08:25.731Z,705.20
2023-05-03T04:09:25.705Z,690.20
2023-05-03T04:10:25.710Z,655.20
2023-05-03T04:11:25.750Z,639.90
2023-05-03T04:12:25.683Z,634.90
2023-05-03T04:13:25.674Z,621.30
2023-05-03T04:14:25.655Z,627.00
2023-05-03T04:15:25.637Z,639.40
2023-05-03T04:16:25.654Z,628.30
2023-05-03T04:17:25.671Z,631.70
2023-05-03T04:18:25.632Z,646.20
2023-05-03T04:19:25.603Z,653.80
2023-05-03T04:20:25.608Z,626.70
2023-05-03T04:21:25.584Z,626.40
2023-05-03T04:22:25.593Z,637.40
2023-05-03T04:23:25.568Z,629.90
2023-05-03T04:24:25.565Z,653.80
2023-05-03T04:25:25.555Z,668.30
2023-05-03T04:26:31.813Z,669.50
2023-05-03T04:27:26.544Z,691.80
2023-05-03T04:28:25.502Z,682.80
2023-05-03T04:29:25.486Z,691.20
2023-05-03T04:30:25.492Z,699.10
2023-05-03T04:31:25.566Z,679.60
2023-05-03T04:32:25.523Z,682.80
2023-05-03T04:33:25.442Z,689.10
2023-05-03T04:34:25.443Z,714.70
2023-05-03T04:35:25.426Z,735.10
2023-05-03T04:36:25.460Z,745.70
2023-05-03T04:37:25.431Z,742.80
2023-05-03T04:38:25.383Z,683.40
2023-05-03T04:39:25.363Z,681.30
2023-05-03T04:40:25.368Z,729.40
2023-05-03T04:41:25.352Z,727.30
2023-05-03T04:42:25.381Z,692.90
2023-05-03T04:43:25.323Z,731.60
2023-05-03T04:44:25.322Z,737.00
2023-05-03T04:45:25.319Z,704.20
2023-05-03T04:46:25.326Z,713.20
2023-05-03T04:47:25.373Z,723.80
2023-05-03T04:48:25.273Z,726.20
2023-05-03T04:49:25.254Z,628.00
2023-05-03T04:50:25.235Z,766.40
2023-05-03T04:51:25.249Z,720.50
2023-05-03T04:52:25.276Z,158.10
2023-05-03T04:53:25.220Z,285.20
2023-05-03T04:54:25.218Z,351.90
2023-05-03T04:55:25.204Z,139.40
2023-05-03T04:56:25.216Z,141.30
2023-05-03T04:57:25.206Z,412.00
2023-05-03T04:58:25.175Z,336.70
2023-05-03T04:59:25.169Z,255.30
2023-05-03T05:00:25.172Z,319.00
2023-05-03T05:01:25.178Z,385.70
2023-05-03T05:02:25.252Z,398.70
2023-05-03T05:03:25.190Z,349.70
2023-05-03T05:04:25.098Z,280.10
2023-05-03T05:05:25.077Z,288.60
2023-05-03T05:06:25.110Z,307.40
2023-05-03T05:07:25.096Z,263.60
2023-05-03T05:08:25.042Z,206.90
2023-05-03T05:09:25.059Z,192.10
2023-05-03T05:10:25.021Z,176.30
2023-05-03T05:11:24.997Z,210.20
2023-05-03T05:12:25.046Z,657.40
2023-05-03T05:13:25.006Z,613.50
2023-05-03T05:14:24.976Z,580.30
2023-05-03T05:15:24.950Z,379.50
2023-05-03T05:16:24.973Z,517.00
2023-05-03T05:17:25.052Z,585.40
2023-05-03T05:18:24.997Z,561.50
2023-05-03T05:19:24.921Z,197.20
2023-05-03T05:20:24.936Z,600.00
2023-05-03T05:21:24.904Z,559.70
2023-05-03T05:22:24.922Z,542.60
2023-05-03T05:23:24.877Z,103.10
2023-05-03T05:24:24.855Z,130.80
2023-05-03T05:25:24.850Z,77.00
2023-05-03T05:26:24.875Z,633.20
2023-05-03T05:27:25.372Z,585.70
2023-05-03T05:28:24.825Z,571.80
2023-05-03T05:29:24.798Z,590.40
2023-05-03T05:30:24.797Z,544.80
2023-05-03T05:31:24.816Z,517.80
2023-05-03T05:32:24.782Z,512.10
2023-05-03T05:33:24.808Z,505.60
2023-05-03T05:34:24.749Z,509.20
2023-05-03T05:35:24.744Z,498.30
2023-05-03T05:36:24.748Z,473.30
2023-05-03T05:37:24.740Z,488.10
2023-05-03T05:38:24.720Z,447.40
2023-05-03T05:39:24.721Z,481.70
2023-05-03T05:40:24.711Z,479.30
2023-05-03T05:41:24.691Z,503.50
2023-05-03T05:42:24.697Z,410.40
2023-05-03T05:43:24.680Z,468.10
2023-05-03T05:44:24.636Z,457.90
2023-05-03T05:45:24.641Z,452.80
2023-05-03T05:46:24.647Z,435.90
2023-05-03T05:47:24.722Z,435.10
2023-05-03T05:48:24.598Z,402.00
2023-05-03T05:49:24.561Z,388.10
2023-05-03T05:50:24.585Z,402.60
2023-05-03T05:51:24.548Z,428.30
2023-05-03T05:52:24.593Z,423.40
2023-05-03T05:53:24.539Z,429.70
2023-05-03T05:54:24.535Z,408.50
2023-05-03T05:55:24.512Z,476.80
2023-05-03T05:56:24.511Z,492.50
2023-05-03T05:57:24.520Z,430.10
2023-05-03T05:58:24.494Z,456.80
2023-05-03T05:59:24.480Z,412.20
2023-05-03T06:00:24.519Z,405.20
2023-05-03T06:01:24.448Z,393.30
2023-05-03T06:02:24.539Z,411.90
2023-05-03T06:03:24.448Z,596.30
2023-05-03T06:04:24.436Z,491.70
2023-05-03T06:05:24.435Z,357.30
2023-05-03T06:06:24.450Z,55.50
2023-05-03T06:07:24.413Z,87.10
2023-05-03T06:08:24.394Z,84.90
2023-05-03T06:09:25.203Z,86.90
2023-05-03T06:10:24.353Z,92.70
2023-05-03T06:11:24.324Z,118.40
2023-05-03T06:12:24.391Z,87.80
2023-05-03T06:13:24.332Z,108.00
2023-05-03T06:14:24.297Z,103.70
2023-05-03T06:15:24.333Z,129.70
2023-05-03T06:16:24.337Z,90.90
2023-05-03T06:17:24.324Z,108.70
2023-05-03T06:18:24.264Z,108.30
2023-05-03T06:19:24.236Z,86.40
2023-05-03T06:20:24.244Z,121.90
2023-05-03T06:21:24.222Z,123.10
2023-05-03T06:22:24.252Z,73.80
2023-05-03T06:23:24.197Z,56.30
2023-05-03T06:24:24.183Z,112.80
2023-05-03T06:25:24.201Z,72.50
2023-05-03T06:26:24.177Z,69.30
2023-05-03T06:27:24.213Z,80.40
2023-05-03T06:28:24.159Z,74.00
2023-05-03T06:29:24.144Z,64.00
2023-05-03T06:30:24.121Z,70.50
2023-05-03T06:31:24.134Z,57.40
2023-05-03T06:32:24.177Z,54.40
2023-05-03T06:33:24.080Z,50.70
2023-05-03T06:34:24.073Z,44.90
2023-05-03T06:35:24.059Z,62.00
2023-05-03T06:36:24.055Z,41.90
2023-05-03T06:37:24.089Z,48.30
2023-05-03T06:38:24.039Z,42.80
2023-05-03T06:39:24.035Z,50.20
2023-05-03T06:40:24.010Z,53.50
2023-05-03T06:41:24.002Z,49.10
2023-05-03T06:42:24.010Z,47.60
2023-05-03T06:43:23.964Z,58.00
2023-05-03T06:44:23.965Z,51.80
2023-05-03T06:45:23.965Z,70.20
2023-05-03T06:46:23.989Z,63.20
2023-05-03T06:47:23.956Z,63.30
2023-05-03T06:48:24.016Z,53.50
2023-05-03T06:49:23.923Z,47.80
2023-05-03T06:50:23.917Z,54.90
2023-05-03T06:51:23.888Z,50.80
2023-05-03T06:52:23.923Z,47.80
2023-05-03T06:53:23.878Z,48.80
2023-05-03T06:54:23.866Z,63.10
2023-05-03T06:55:23.848Z,55.50
2023-05-03T06:56:23.839Z,58.90
2023-05-03T06:57:23.859Z,56.40
2023-05-03T06:58:23.824Z,63.20
2023-05-03T06:59:23.811Z,64.30
2023-05-03T07:00:23.766Z,80.40
2023-05-03T07:01:23.788Z,54.70
2023-05-03T07:02:23.907Z,58.20
2023-05-03T07:03:23.896Z,82.20
2023-05-03T07:04:23.753Z,80.00
2023-05-03T07:05:23.742Z,88.50
2023-05-03T07:06:23.786Z,69.30
2023-05-03T07:07:23.786Z,111.00
2023-05-03T07:08:23.706Z,113.60
2023-05-03T07:09:35.472Z,90.70
2023-05-03T07:10:24.695Z,66.10
2023-05-03T07:11:23.637Z,79.80
2023-05-03T07:12:23.679Z,66.40
2023-05-03T07:13:23.640Z,54.70
2023-05-03T07:14:23.636Z,55.70
2023-05-03T07:15:23.630Z,73.30
2023-05-03T07:16:23.704Z,93.00
2023-05-03T07:17:23.628Z,76.40
2023-05-03T07:18:23.600Z,70.60
2023-05-03T07:19:23.587Z,131.80
2023-05-03T07:20:23.558Z,84.40
2023-05-03T07:21:23.570Z,102.60
2023-05-03T07:22:23.610Z,97.20
2023-05-03T07:23:23.535Z,76.10
2023-05-03T07:24:23.531Z,90.70
2023-05-03T07:25:23.571Z,85.20
2023-05-03T07:26:23.496Z,104.70
2023-05-03T07:27:23.477Z,79.30
2023-05-03T07:28:23.504Z,72.20
2023-05-03T07:29:23.423Z,70.40
2023-05-03T07:30:23.478Z,75.00
2023-05-03T07:31:23.447Z,88.70
2023-05-03T07:32:23.536Z,77.40
2023-05-03T07:33:23.516Z,97.00
2023-05-03T07:34:23.422Z,109.10
2023-05-03T07:35:23.410Z,84.70
2023-05-03T07:36:23.421Z,116.30
2023-05-03T07:37:23.394Z,202.70
2023-05-03T07:38:23.380Z,169.10
2023-05-03T07:39:23.330Z,213.60
2023-05-03T07:40:23.337Z,266.70
2023-05-03T07:41:23.305Z,207.90
2023-05-03T07:42:23.341Z,250.90
2023-05-03T07:43:23.297Z,174.60
2023-05-03T07:44:23.286Z,232.80
2023-05-03T07:45:23.278Z,125.30
2023-05-03T07:46:23.376Z,109.40
2023-05-03T07:47:23.292Z,235.50
2023-05-03T07:48:23.276Z,231.10
2023-05-03T07:49:23.237Z,316.30
2023-05-03T07:50:23.203Z,339.20
2023-05-03T07:51:23.195Z,531.60
2023-05-03T07:52:23.242Z,466.10
2023-05-03T07:53:23.177Z,519.60
2023-05-03T07:54:23.220Z,488.30
2023-05-03T07:55:23.135Z,522.20
2023-05-03T07:56:23.141Z,437.10
2023-05-03T07:57:23.166Z,335.20
2023-05-03T07:58:31.383Z,307.00
2023-05-03T07:59:24.123Z,298.70
2023-05-03T08:00:23.090Z,314.10
2023-05-03T08:01:23.113Z,323.40
2023-05-03T08:02:23.224Z,309.60
2023-05-03T08:03:23.312Z,273.70
2023-05-03T08:04:23.302Z,103.60
2023-05-03T08:05:23.096Z,52.70
2023-05-03T08:06:23.060Z,64.60
2023-05-03T08:07:23.054Z,49.10
2023-05-03T08:08:23.105Z,92.70
2023-05-03T08:09:22.990Z,96.10
2023-05-03T08:10:23.016Z,75.50
2023-05-03T08:11:22.973Z,89.90
2023-05-03T08:12:23.022Z,52.70
2023-05-03T08:13:22.979Z,67.20
2023-05-03T08:14:22.956Z,82.70
2023-05-03T08:15:22.965Z,60.40
2023-05-03T08:16:23.124Z,69.60
2023-05-03T08:17:22.918Z,187.40
2023-05-03T08:18:23.855Z,69.50
2023-05-03T08:19:22.909Z,64.50
2023-05-03T08:20:22.919Z,76.30
2023-05-03T08:21:22.876Z,95.90
2023-05-03T08:22:22.892Z,224.50
2023-05-03T08:23:22.919Z,71.20
2023-05-03T08:24:22.831Z,167.90
2023-05-03T08:25:22.810Z,167.10
2023-05-03T08:26:22.817Z,247.70
2023-05-03T08:27:22.926Z,226.80
2023-05-03T08:28:22.840Z,181.60
2023-05-03T08:29:22.777Z,163.70
2023-05-03T08:30:22.786Z,128.10
2023-05-03T08:31:22.812Z,172.50
2023-05-03T08:32:22.757Z,116.20
2023-05-03T08:33:22.774Z,95.70
2023-05-03T08:34:22.739Z,164.10
2023-05-03T08:35:22.734Z,176.30
2023-05-03T08:36:22.727Z,179.40
2023-05-03T08:37:22.733Z,177.10
2023-05-03T08:38:27.223Z,121.30
2023-05-03T08:39:22.690Z,141.10
2023-05-03T08:40:22.719Z,182.80
2023-05-03T08:41:22.693Z,230.20
2023-05-03T08:42:25.199Z,91.80
2023-05-03T08:43:22.690Z,136.10
2023-05-03T08:44:22.620Z,139.90
2023-05-03T08:45:22.642Z,183.40
2023-05-03T08:46:22.694Z,113.30
2023-05-03T08:47:22.605Z,95.60
2023-05-03T08:48:22.630Z,120.00
2023-05-03T08:49:22.583Z,108.20
2023-05-03T08:50:22.536Z,183.50
2023-05-03T08:51:22.534Z,197.70
2023-05-03T08:52:22.508Z,242.40
2023-05-03T08:53:22.569Z,174.30
2023-05-03T08:54:22.500Z,196.00
2023-05-03T08:55:22.525Z,222.70
2023-05-03T08:56:22.471Z,130.80
2023-05-03T08:57:22.468Z,202.10
2023-05-03T08:58:22.487Z,113.90
2023-05-03T08:59:22.445Z,159.40
2023-05-03T09:00:22.440Z,257.20
2023-05-03T09:01:22.449Z,204.80
2023-05-03T09:02:22.420Z,233.90
2023-05-03T09:03:22.610Z,263.00
2023-05-03T09:04:22.426Z,281.00
2023-05-03T09:05:22.368Z,147.10
2023-05-03T09:06:22.410Z,182.50
2023-05-03T09:07:22.383Z,84.60
2023-05-03T09:08:22.376Z,93.70
2023-05-03T09:09:22.326Z,56.20
2023-05-03T09:10:22.306Z,69.60
2023-05-03T09:11:22.317Z,76.40
2023-05-03T09:12:22.308Z,140.30
2023-05-03T09:13:22.316Z,253.20
2023-05-03T09:14:22.276Z,167.30
2023-05-03T09:15:22.344Z,319.30
2023-05-03T09:16:22.352Z,168.60
2023-05-03T09:17:22.223Z,161.30
2023-05-03T09:18:22.353Z,188.00
2023-05-03T09:19:22.215Z,285.50
2023-05-03T09:20:22.192Z,331.00
2023-05-03T09:21:22.190Z,203.20
2023-05-03T09:22:22.177Z,61.00
2023-05-03T09:23:22.219Z,131.90
2023-05-03T09:24:22.198Z,81.30
2023-05-03T09:25:22.157Z,124.80
2023-05-03T09:26:22.149Z,81.10
2023-05-03T09:27:22.159Z,124.60
2023-05-03T09:28:22.168Z,161.60
2023-05-03T09:29:22.100Z,74.30
2023-05-03T09:30:22.084Z,134.40
2023-05-03T09:31:22.098Z,51.50
2023-05-03T09:32:22.118Z,64.40
2023-05-03T09:33:22.286Z,126.60
2023-05-03T09:34:22.077Z,197.70
2023-05-03T09:35:22.068Z,63.60
2023-05-03T09:36:22.021Z,59.50
2023-05-03T09:37:22.049Z,74.20
2023-05-03T09:38:22.058Z,132.00
2023-05-03T09:39:22.006Z,141.60
2023-05-03T09:40:21.982Z,164.20
2023-05-03T09:41:21.993Z,165.70
2023-05-03T09:42:21.977Z,108.60
2023-05-03T09:43:21.996Z,134.10
2023-05-03T09:44:21.959Z,103.60
2023-05-03T09:45:21.948Z,105.50
2023-05-03T09:46:21.936Z,125.20
2023-05-03T09:47:21.917Z,95.80
2023-05-03T09:48:21.967Z,77.00
2023-05-03T09:49:21.889Z,85.20
2023-05-03T09:50:21.888Z,77.30
2023-05-03T09:51:21.871Z,69.10
2023-05-03T09:52:21.901Z,120.20
2023-05-03T09:53:21.839Z,89.50
2023-05-03T09:54:23.019Z,97.80
2023-05-03T09:55:21.822Z,54.10
2023-05-03T09:56:21.805Z,54.60
2023-05-03T09:57:21.856Z,54.00
2023-05-03T09:58:21.807Z,53.60
2023-05-03T09:59:21.784Z,44.70
2023-05-03T10:00:21.767Z,40.70
2023-05-03T10:01:21.774Z,40.50
2023-05-03T10:02:21.901Z,58.30
2023-05-03T10:03:21.789Z,51.70
2023-05-03T10:04:21.747Z,55.60
2023-05-03T10:05:21.741Z,57.10
2023-05-03T10:06:21.788Z,45.40
2023-05-03T10:07:21.717Z,42.40
2023-05-03T10:08:21.729Z,57.90
2023-05-03T10:09:21.669Z,95.80
2023-05-03T10:10:21.690Z,185.00
2023-05-03T10:11:21.654Z,151.20
2023-05-03T10:12:21.642Z,80.90
2023-05-03T10:13:21.731Z,101.40
2023-05-03T10:14:21.651Z,221.80
2023-05-03T10:15:21.594Z,49.50
2023-05-03T10:16:21.771Z,230.50
2023-05-03T10:17:22.317Z,119.20
2023-05-03T10:18:21.661Z,160.30
2023-05-03T10:19:21.626Z,193.30
2023-05-03T10:20:21.552Z,229.50
2023-05-03T10:21:21.632Z,191.60
2023-05-03T10:22:21.507Z,318.40
2023-05-03T10:23:21.623Z,302.10
2023-05-03T10:24:21.498Z,459.70
2023-05-03T10:25:21.508Z,365.50
2023-05-03T10:26:21.513Z,281.10
2023-05-03T10:27:21.501Z,171.50
2023-05-03T10:28:21.499Z,188.80
2023-05-03T10:29:21.459Z,95.60
2023-05-03T10:30:21.424Z,173.40
2023-05-03T10:31:21.513Z,173.70
2023-05-03T10:32:21.433Z,157.90
2023-05-03T10:33:21.423Z,155.60
2023-05-03T10:34:21.414Z,106.30
2023-05-03T10:35:21.387Z,108.00
2023-05-03T10:36:21.379Z,150.40
2023-05-03T10:37:21.367Z,116.30
2023-05-03T10:38:21.456Z,105.20
2023-05-03T10:39:21.349Z,126.00
2023-05-03T10:40:21.353Z,85.10
2023-05-03T10:41:21.311Z,121.20
2023-05-03T10:42:21.281Z,139.00
2023-05-03T10:43:21.330Z,131.70
2023-05-03T10:44:21.282Z,122.20
2023-05-03T10:45:21.267Z,117.60
2023-05-03T10:46:21.302Z,111.70
2023-05-03T10:47:21.282Z,67.10
2023-05-03T10:48:21.257Z,67.10
2023-05-03T10:49:21.227Z,75.90
2023-05-03T10:50:21.208Z,94.60
2023-05-03T10:51:21.187Z,98.50
2023-05-03T10:52:21.216Z,85.90
2023-05-03T10:53:21.215Z,88.70
2023-05-03T10:54:21.192Z,89.30
2023-05-03T10:55:21.149Z,103.30
2023-05-03T10:56:21.150Z,129.90
2023-05-03T10:57:21.129Z,156.50
2023-05-03T10:58:21.169Z,156.40
2023-05-03T10:59:21.108Z,152.90
2023-05-03T11:00:21.130Z,204.60
2023-05-03T11:01:21.143Z,201.20
2023-05-03T11:02:21.088Z,247.70
2023-05-03T11:03:21.133Z,221.90
2023-05-03T11:04:21.113Z,253.40
2023-05-03T11:05:21.051Z,282.70
2023-05-03T11:06:21.062Z,115.90
2023-05-03T11:07:21.123Z,84.20
2023-05-03T11:08:21.049Z,80.80
2023-05-03T11:09:21.004Z,88.20
2023-05-03T11:10:20.989Z,94.10
2023-05-03T11:11:20.973Z,96.60
2023-05-03T11:12:20.989Z,63.70
2023-05-03T11:13:21.028Z,53.40
2023-05-03T11:14:20.944Z,59.70
2023-05-03T11:15:20.945Z,62.30
2023-05-03T11:16:20.984Z,64.90
2023-05-03T11:17:20.926Z,64.10
2023-05-03T11:18:20.953Z,60.30
2023-05-03T11:19:20.889Z,55.30
2023-05-03T11:20:20.880Z,52.90
2023-05-03T11:21:20.856Z,48.10
2023-05-03T11:22:20.874Z,38.80
2023-05-03T11:23:20.958Z,35.00
2023-05-03T11:24:20.843Z,38.50
2023-05-03T11:25:20.848Z,52.90
2023-05-03T11:26:20.838Z,56.60
2023-05-03T11:27:20.807Z,60.80
2023-05-03T11:28:20.856Z,65.50
2023-05-03T11:29:20.936Z,61.70
2023-05-03T11:30:20.781Z,58.30
2023-05-03T11:31:20.832Z,68.20
2023-05-03T11:32:20.890Z,86.40
2023-05-03T11:33:20.754Z,67.60
2023-05-03T11:34:20.799Z,62.10
2023-05-03T11:35:20.758Z,51.10
2023-05-03T11:36:20.692Z,54.20
2023-05-03T11:37:20.660Z,51.00
2023-05-03T11:38:20.676Z,51.30
2023-05-03T11:39:21.105Z,57.50
2023-05-03T11:40:20.677Z,64.40
2023-05-03T11:41:20.663Z,63.70
2023-05-03T11:42:20.645Z,82.30
2023-05-03T11:43:20.644Z,102.60
2023-05-03T11:44:20.652Z,61.00
2023-05-03T11:45:22.827Z,68.20
2023-05-03T11:46:20.696Z,53.50
2023-05-03T11:47:20.598Z,48.70
2023-05-03T11:48:20.655Z,83.90
2023-05-03T11:49:21.025Z,51.60
2023-05-03T11:50:20.571Z,54.50
2023-05-03T11:51:20.562Z,56.10
2023-05-03T11:52:20.512Z,71.00
2023-05-03T11:53:20.528Z,94.20
2023-05-03T11:54:26.221Z,67.90
2023-05-03T11:55:21.519Z,59.80
2023-05-03T11:56:20.554Z,60.70
2023-05-03T11:57:20.485Z,63.20
2023-05-03T11:58:20.472Z,61.70
2023-05-03T11:59:20.518Z,49.30
2023-05-03T12:00:20.472Z,50.50
2023-05-03T12:01:20.502Z,57.70
2023-05-03T12:02:20.634Z,51.60
2023-05-03T12:03:20.678Z,47.80
2023-05-03T12:04:20.623Z,41.70
2023-05-03T12:05:20.942Z,42.30
2023-05-03T12:06:20.756Z,40.30
2023-05-03T12:07:22.741Z,42.30
2023-05-03T12:08:21.152Z,41.20
2023-05-03T12:09:22.035Z,37.80
2023-05-03T12:10:23.979Z,38.40
2023-05-03T12:11:22.350Z,38.80
2023-05-03T12:12:25.657Z,39.40
2023-05-03T12:13:21.521Z,42.30
2023-05-03T12:14:20.394Z,44.70
2023-05-03T12:15:21.595Z,43.80
2023-05-03T12:16:20.408Z,48.80
2023-05-03T12:17:20.438Z,48.30
2023-05-03T12:18:20.495Z,53.20
2023-05-03T12:19:23.056Z,54.90
2023-05-03T12:22:25.639Z,47.30
2023-05-03T12:23:21.778Z,41.00
2023-05-03T12:24:20.740Z,36.20
2023-05-03T12:25:21.136Z,37.80
2023-05-03T12:26:20.314Z,40.40
2023-05-03T12:27:20.800Z,37.30
2023-05-03T12:28:21.371Z,36.30
2023-05-03T12:29:21.161Z,34.90
2023-05-03T12:30:21.852Z,34.50
2023-05-03T12:31:22.530Z,38.60
2023-05-03T12:33:22.204Z,44.80
2023-05-03T12:34:33.955Z,37.20
2023-05-03T12:35:21.466Z,33.70
2023-05-03T12:36:21.367Z,32.90
2023-05-03T12:37:22.220Z,33.60
2023-05-03T12:38:23.371Z,34.00